createdAt,value
2023-12-30T00:00:02.071Z,1.40
2023-12-30T00:02:50.026Z,1.60
2023-12-30T00:05:18.018Z,1.37
2023-12-30T00:07:46.554Z,1.40
2023-12-30T00:10:14.176Z,1.30
2023-12-30T00:12:41.626Z,1.30
2023-12-30T00:15:09.529Z,1.23
2023-12-30T00:17:37.045Z,1.57
2023-12-30T00:20:04.980Z,1.53
2023-12-30T00:22:32.359Z,1.37
2023-12-30T00:24:59.873Z,1.50
2023-12-30T00:27:27.310Z,1.80
2023-12-30T00:29:55.416Z,1.43
2023-12-30T00:32:22.806Z,1.60
2023-12-30T00:34:50.934Z,1.53
2023-12-30T00:37:22.887Z,2.07
2023-12-30T00:39:51.439Z,1.70
2023-12-30T00:42:19.596Z,1.50
2023-12-30T00:44:47.090Z,1.47
2023-12-30T00:47:15.736Z,1.73
2023-12-30T00:49:43.090Z,1.43
2023-12-30T00:52:10.639Z,2.10
2023-12-30T00:54:44.557Z,2.23
2023-12-30T00:57:17.920Z,1.53
2023-12-30T00:59:45.223Z,1.87
2023-12-30T01:02:12.613Z,1.50
2023-12-30T01:04:39.952Z,1.40
2023-12-30T01:07:08.349Z,1.40
2023-12-30T01:09:35.670Z,1.53
2023-12-30T01:12:03.348Z,1.77
2023-12-30T01:14:31.078Z,1.90
2023-12-30T01:16:58.399Z,1.33
2023-12-30T01:19:26.451Z,1.50
2023-12-30T01:21:53.863Z,1.57
2023-12-30T01:24:21.160Z,1.27
2023-12-30T01:26:49.643Z,1.67
2023-12-30T01:29:17.046Z,1.30
2023-12-30T01:31:44.476Z,1.50
2023-12-30T01:34:11.868Z,1.20
2023-12-30T01:36:39.218Z,1.67
2023-12-30T01:39:06.504Z,1.20
2023-12-30T01:41:33.876Z,1.23
2023-12-30T01:44:01.178Z,3.93
2023-12-30T01:46:29.109Z,1.37
2023-12-30T01:48:56.671Z,1.37
2023-12-30T01:51:26.554Z,1.50
2023-12-30T01:53:54.602Z,1.30
2023-12-30T01:56:22.708Z,1.10
2023-12-30T01:58:51.647Z,1.23
2023-12-30T02:01:20.728Z,2.43
2023-12-30T02:03:48.612Z,1.47
2023-12-30T02:06:15.950Z,1.60
2023-12-30T02:08:43.701Z,1.40
2023-12-30T02:11:12.075Z,1.37
2023-12-30T02:13:42.984Z,1.30
2023-12-30T02:16:11.034Z,1.40
2023-12-30T02:18:41.554Z,1.20
2023-12-30T02:21:08.945Z,1.13
2023-12-30T02:23:36.529Z,1.00
2023-12-30T02:26:03.830Z,1.30
2023-12-30T02:28:31.441Z,1.43
2023-12-30T02:30:58.910Z,0.97
2023-12-30T02:33:26.455Z,2.60
2023-12-30T02:35:54.067Z,1.13
2023-12-30T02:38:21.350Z,1.50
2023-12-30T02:40:49.132Z,1.60
2023-12-30T02:43:16.466Z,1.50
2023-12-30T02:45:43.867Z,1.07
2023-12-30T02:48:11.646Z,1.30
2023-12-30T02:50:39.989Z,1.17
2023-12-30T02:53:07.228Z,1.40
2023-12-30T02:55:34.732Z,1.10
2023-12-30T02:58:02.026Z,1.97
2023-12-30T03:00:29.369Z,1.30
2023-12-30T03:02:56.699Z,1.23
2023-12-30T03:05:24.704Z,1.30
2023-12-30T03:07:52.062Z,0.97
2023-12-30T03:10:19.616Z,1.30
2023-12-30T03:12:46.957Z,1.30
2023-12-30T03:15:15.428Z,1.50
2023-12-30T03:17:43.016Z,1.30
2023-12-30T03:20:11.512Z,1.20
2023-12-30T03:22:39.165Z,1.60
2023-12-30T03:25:07.793Z,1.77
2023-12-30T03:27:35.125Z,1.40
2023-12-30T03:30:02.537Z,1.50
2023-12-30T03:32:30.089Z,2.17
2023-12-30T03:34:57.976Z,1.50
2023-12-30T03:37:26.115Z,1.37
2023-12-30T03:39:53.592Z,1.43
2023-12-30T03:42:21.037Z,1.77
2023-12-30T03:44:48.308Z,1.60
2023-12-30T03:47:15.562Z,1.50
2023-12-30T03:49:42.984Z,2.13
2023-12-30T03:52:10.319Z,1.83
2023-12-30T03:54:38.009Z,2.03
2023-12-30T03:57:05.403Z,1.83
2023-12-30T03:59:33.404Z,1.40
2023-12-30T04:02:00.888Z,2.40
2023-12-30T04:04:29.944Z,1.70
2023-12-30T04:06:57.232Z,1.70
2023-12-30T04:09:25.520Z,1.33
2023-12-30T04:11:52.803Z,2.07
2023-12-30T04:14:20.272Z,1.40
2023-12-30T04:16:48.575Z,1.33
2023-12-30T04:19:17.671Z,1.43
2023-12-30T04:21:45.021Z,2.10
2023-12-30T04:24:12.486Z,1.77
2023-12-30T04:26:39.732Z,1.50
2023-12-30T04:29:06.999Z,3.90
2023-12-30T04:31:34.423Z,1.47
2023-12-30T04:34:01.942Z,1.83
2023-12-30T04:36:29.331Z,2.73
2023-12-30T04:38:57.819Z,1.67
2023-12-30T04:41:25.506Z,1.30
2023-12-30T04:43:52.830Z,1.47
2023-12-30T04:46:20.168Z,1.57
2023-12-30T04:48:50.089Z,1.97
2023-12-30T04:51:17.616Z,1.43
2023-12-30T04:53:44.890Z,1.47
2023-12-30T04:56:16.684Z,2.70
2023-12-30T04:58:44.248Z,1.97
2023-12-30T05:01:12.847Z,2.17
2023-12-30T05:03:43.747Z,2.17
2023-12-30T05:06:23.297Z,0.93
2023-12-30T05:08:54.186Z,2.43
2023-12-30T05:11:24.763Z,1.10
2023-12-30T05:13:52.159Z,1.27
2023-12-30T05:16:19.482Z,0.90
2023-12-30T05:18:46.867Z,1.57
2023-12-30T05:21:18.036Z,0.97
2023-12-30T05:23:45.914Z,1.10
2023-12-30T05:26:16.433Z,0.90
2023-12-30T05:28:43.813Z,1.80
2023-12-30T05:31:11.801Z,0.97
2023-12-30T05:33:39.295Z,1.17
2023-12-30T05:36:06.795Z,1.00
2023-12-30T05:38:34.181Z,1.30
2023-12-30T05:41:01.473Z,1.47
2023-12-30T05:43:28.893Z,2.13
2023-12-30T05:45:56.169Z,1.83
2023-12-30T05:48:23.612Z,1.13
2023-12-30T05:50:50.978Z,1.57
2023-12-30T05:53:18.332Z,1.17
2023-12-30T05:55:45.590Z,1.53
2023-12-30T05:58:13.036Z,3.27
2023-12-30T06:00:40.405Z,1.30
2023-12-30T06:03:08.468Z,1.10
2023-12-30T06:05:36.875Z,0.93
2023-12-30T06:08:04.332Z,2.03
2023-12-30T06:10:31.767Z,0.97
2023-12-30T06:13:00.124Z,1.33
2023-12-30T06:15:27.648Z,0.90
2023-12-30T06:17:55.070Z,1.00
2023-12-30T06:20:22.567Z,1.67
2023-12-30T06:22:49.823Z,1.00
2023-12-30T06:25:17.235Z,2.27
2023-12-30T06:27:44.585Z,1.43
2023-12-30T06:30:12.105Z,1.77
2023-12-30T06:32:39.590Z,1.27
2023-12-30T06:35:07.155Z,1.70
2023-12-30T06:37:34.565Z,1.20
2023-12-30T06:40:02.111Z,2.20
2023-12-30T06:42:29.444Z,1.47
2023-12-30T06:44:56.905Z,1.40
2023-12-30T06:47:24.477Z,1.13
2023-12-30T06:49:51.877Z,1.03
2023-12-30T06:52:22.377Z,1.33
2023-12-30T06:54:59.067Z,1.20
2023-12-30T06:57:34.203Z,1.17
2023-12-30T07:00:01.478Z,1.37
2023-12-30T07:02:28.851Z,3.23
2023-12-30T07:04:56.313Z,1.77
2023-12-30T07:07:23.631Z,1.33
2023-12-30T07:09:51.070Z,1.63
2023-12-30T07:12:18.566Z,3.10
2023-12-30T07:14:45.937Z,1.17
2023-12-30T07:17:13.958Z,3.03
2023-12-30T07:19:41.343Z,1.43
2023-12-30T07:22:08.732Z,1.33
2023-12-30T07:24:35.991Z,1.30
2023-12-30T07:27:03.476Z,1.37
2023-12-30T07:29:30.777Z,1.60
2023-12-30T07:31:58.159Z,1.00
2023-12-30T07:34:25.590Z,1.60
2023-12-30T07:36:53.233Z,1.20
2023-12-30T07:39:20.501Z,2.43
2023-12-30T07:41:47.782Z,3.63
2023-12-30T07:44:15.022Z,1.27
2023-12-30T07:46:43.004Z,6.07
2023-12-30T07:49:11.842Z,1.03
2023-12-30T07:51:39.251Z,1.30
2023-12-30T07:54:06.518Z,2.80
2023-12-30T07:56:34.486Z,1.90
2023-12-30T07:59:01.807Z,1.70
2023-12-30T08:01:29.154Z,1.03
2023-12-30T08:03:56.528Z,2.20
2023-12-30T08:06:23.938Z,1.97
2023-12-30T08:08:51.216Z,1.40
2023-12-30T08:11:18.589Z,1.87
2023-12-30T08:13:46.013Z,2.23
2023-12-30T08:16:13.389Z,1.50
2023-12-30T08:18:41.044Z,3.23
2023-12-30T08:21:08.562Z,1.27
2023-12-30T08:23:35.945Z,1.30
2023-12-30T08:26:03.378Z,1.50
2023-12-30T08:28:30.804Z,2.30
2023-12-30T08:31:00.542Z,2.47
2023-12-30T08:33:28.510Z,1.87
2023-12-30T08:35:55.865Z,2.10
2023-12-30T08:38:23.185Z,1.10
2023-12-30T08:40:50.592Z,2.53
2023-12-30T08:43:18.096Z,1.63
2023-12-30T08:45:45.789Z,3.13
2023-12-30T08:48:13.198Z,4.00
2023-12-30T08:50:40.746Z,1.40
2023-12-30T08:53:08.458Z,3.60
2023-12-30T08:55:36.340Z,1.30
2023-12-30T08:58:04.223Z,2.70
2023-12-30T09:00:31.613Z,3.13
2023-12-30T09:02:59.172Z,2.67
2023-12-30T09:05:27.110Z,1.63
2023-12-30T09:07:54.386Z,2.00
2023-12-30T09:10:21.993Z,1.80
2023-12-30T09:12:49.304Z,2.40
2023-12-30T09:15:16.600Z,3.57
2023-12-30T09:17:43.983Z,1.30
2023-12-30T09:20:11.777Z,1.57
2023-12-30T09:22:39.221Z,2.53
2023-12-30T09:25:06.805Z,2.17
2023-12-30T09:27:34.095Z,1.53
2023-12-30T09:30:01.662Z,1.10
2023-12-30T09:32:29.008Z,2.63
2023-12-30T09:34:57.898Z,1.50
2023-12-30T09:37:25.383Z,1.50
2023-12-30T09:39:52.840Z,2.03
2023-12-30T09:42:20.262Z,1.77
2023-12-30T09:44:48.546Z,1.57
2023-12-30T09:47:16.019Z,2.50
2023-12-30T09:49:44.604Z,1.53
2023-12-30T09:52:12.247Z,1.27
2023-12-30T09:54:48.047Z,1.73
2023-12-30T09:57:16.964Z,38.70
2023-12-30T09:59:45.257Z,2.53
2023-12-30T10:02:13.590Z,2.77
2023-12-30T10:04:40.964Z,1.97
2023-12-30T10:07:09.208Z,2.87
2023-12-30T10:09:36.702Z,2.87
2023-12-30T10:12:04.183Z,3.17
2023-12-30T10:14:31.434Z,2.73
2023-12-30T10:16:58.898Z,2.40
2023-12-30T10:19:26.729Z,1.77
2023-12-30T10:21:54.066Z,1.50
2023-12-30T10:24:21.446Z,1.53
2023-12-30T10:26:49.029Z,1.67
2023-12-30T10:29:16.464Z,3.00
2023-12-30T10:31:43.921Z,1.60
2023-12-30T10:34:11.730Z,2.77
2023-12-30T10:36:39.927Z,2.30
2023-12-30T10:39:07.633Z,3.57
2023-12-30T10:41:34.956Z,2.37
2023-12-30T10:44:02.239Z,3.13
2023-12-30T10:46:29.880Z,2.10
2023-12-30T10:48:59.468Z,2.23
2023-12-30T10:51:28.605Z,2.80
2023-12-30T10:54:05.215Z,2.43
2023-12-30T10:56:41.081Z,1.33
2023-12-30T10:59:09.421Z,2.13
2023-12-30T11:01:37.995Z,2.33
2023-12-30T11:04:13.038Z,1.63
2023-12-30T11:06:45.668Z,1.90
2023-12-30T11:09:15.491Z,2.10
2023-12-30T11:11:53.887Z,2.07
2023-12-30T11:14:22.180Z,1.93
2023-12-30T11:16:53.212Z,2.40
2023-12-30T11:19:31.232Z,2.80
2023-12-30T11:22:02.433Z,1.30
2023-12-30T11:24:30.445Z,1.50
2023-12-30T11:26:58.111Z,1.73
2023-12-30T11:29:27.804Z,2.00
2023-12-30T11:31:56.454Z,1.20
2023-12-30T11:34:25.671Z,1.07
2023-12-30T11:36:54.339Z,2.87
2023-12-30T11:39:32.825Z,1.07
2023-12-30T11:42:00.591Z,1.83
2023-12-30T11:44:31.256Z,1.47
2023-12-30T11:46:59.676Z,1.87
2023-12-30T11:49:27.739Z,1.13
2023-12-30T11:52:15.658Z,2.40
2023-12-30T11:54:42.922Z,1.13
2023-12-30T11:57:10.960Z,1.37
2023-12-30T11:59:39.084Z,1.73
2023-12-30T12:02:10.035Z,1.57
2023-12-30T12:04:37.802Z,1.30
2023-12-30T12:07:05.342Z,1.40
2023-12-30T12:09:32.737Z,2.13
2023-12-30T12:12:00.009Z,1.20
2023-12-30T12:14:27.796Z,1.10
2023-12-30T12:16:55.027Z,1.50
2023-12-30T12:19:22.529Z,1.53
2023-12-30T12:21:49.910Z,2.27
2023-12-30T12:24:17.242Z,1.83
2023-12-30T12:26:44.733Z,1.67
2023-12-30T12:29:14.000Z,1.80
2023-12-30T12:31:45.320Z,1.73
2023-12-30T12:34:23.023Z,1.70
2023-12-30T12:36:50.495Z,1.37
2023-12-30T12:39:18.600Z,3.10
2023-12-30T12:41:46.528Z,1.00
2023-12-30T12:44:13.776Z,1.23
2023-12-30T12:46:41.215Z,1.10
2023-12-30T12:49:08.655Z,2.17
2023-12-30T12:51:38.387Z,1.90
2023-12-30T12:54:06.534Z,1.20
2023-12-30T12:56:34.255Z,1.40
2023-12-30T12:59:01.528Z,1.30
2023-12-30T13:01:29.451Z,1.20
2023-12-30T13:03:59.334Z,3.07
2023-12-30T13:06:26.868Z,1.57
2023-12-30T13:08:57.360Z,1.97
2023-12-30T13:11:28.460Z,1.40
2023-12-30T13:13:57.215Z,2.93
2023-12-30T13:16:25.521Z,2.87
2023-12-30T13:18:54.103Z,2.40
2023-12-30T13:21:21.440Z,3.27
2023-12-30T13:23:51.203Z,3.10
2023-12-30T13:26:20.192Z,3.87
2023-12-30T13:28:47.808Z,3.37
2023-12-30T13:31:20.163Z,2.87
2023-12-30T13:33:47.659Z,2.23
2023-12-30T13:36:15.284Z,3.63
2023-12-30T13:38:46.138Z,1.63
2023-12-30T13:41:15.649Z,1.63
2023-12-30T13:43:45.072Z,2.93
2023-12-30T13:46:30.701Z,4.03
2023-12-30T13:49:01.390Z,2.00
2023-12-30T13:51:29.034Z,1.80
2023-12-30T13:53:56.281Z,3.37
2023-12-30T13:56:26.395Z,1.70
2023-12-30T13:58:53.839Z,3.40
2023-12-30T14:01:23.664Z,3.90
2023-12-30T14:03:56.398Z,2.80
2023-12-30T14:06:31.091Z,3.73
2023-12-30T14:08:59.704Z,2.00
2023-12-30T14:11:44.668Z,3.03
2023-12-30T14:14:13.068Z,3.70
2023-12-30T14:16:40.695Z,2.53
2023-12-30T14:19:08.485Z,2.83
2023-12-30T14:21:37.516Z,3.67
2023-12-30T14:24:05.512Z,3.37
2023-12-30T14:26:32.944Z,4.00
2023-12-30T14:29:00.220Z,2.20
2023-12-30T14:31:27.494Z,3.07
2023-12-30T14:33:54.995Z,2.87
2023-12-30T14:36:24.238Z,3.90
2023-12-30T14:38:51.537Z,6.70
2023-12-30T14:41:18.843Z,6.60
2023-12-30T14:43:51.233Z,2.40
2023-12-30T14:46:20.703Z,2.43
2023-12-30T14:48:48.797Z,4.27
2023-12-30T14:51:16.358Z,3.23
2023-12-30T14:53:44.130Z,3.73
2023-12-30T14:56:11.489Z,1.60
2023-12-30T14:58:38.931Z,3.30
2023-12-30T15:01:08.473Z,3.97
2023-12-30T15:03:35.925Z,3.73
2023-12-30T15:06:04.062Z,2.90
2023-12-30T15:08:33.812Z,2.67
2023-12-30T15:11:02.115Z,3.47
2023-12-30T15:13:29.386Z,2.70
2023-12-30T15:15:57.102Z,2.03
2023-12-30T15:18:24.810Z,2.90
2023-12-30T15:20:52.471Z,3.53
2023-12-30T15:23:20.008Z,5.90
2023-12-30T15:25:48.224Z,4.77
2023-12-30T15:28:15.559Z,5.03
2023-12-30T15:30:42.997Z,2.73
2023-12-30T15:33:10.843Z,2.13
2023-12-30T15:35:38.937Z,2.63
2023-12-30T15:38:06.263Z,3.37
2023-12-30T15:40:35.484Z,4.30
2023-12-30T15:43:05.545Z,4.93
2023-12-30T15:45:34.522Z,4.70
2023-12-30T15:48:02.019Z,3.70
2023-12-30T15:50:29.786Z,5.70
2023-12-30T15:52:58.993Z,3.07
2023-12-30T15:55:26.333Z,3.83
2023-12-30T15:57:53.590Z,5.03
2023-12-30T16:00:22.200Z,5.23
2023-12-30T16:02:49.571Z,4.67
2023-12-30T16:05:16.991Z,5.77
2023-12-30T16:07:44.395Z,7.43
2023-12-30T16:10:11.786Z,6.57
2023-12-30T16:12:39.185Z,3.90
2023-12-30T16:15:06.861Z,3.87
2023-12-30T16:17:34.414Z,3.13
2023-12-30T16:20:02.190Z,4.13
2023-12-30T16:22:29.693Z,4.13
2023-12-30T16:24:57.025Z,2.90
2023-12-30T16:27:24.287Z,3.53
2023-12-30T16:29:51.680Z,4.10
2023-12-30T16:32:19.048Z,4.93
2023-12-30T16:34:46.499Z,4.87
2023-12-30T16:37:14.810Z,4.23
2023-12-30T16:39:44.806Z,5.73
2023-12-30T16:42:12.917Z,4.40
2023-12-30T16:44:41.895Z,5.50
2023-12-30T16:47:09.499Z,4.67
2023-12-30T16:49:36.797Z,8.53
2023-12-30T16:52:04.260Z,4.30
2023-12-30T16:54:31.583Z,6.83
2023-12-30T16:56:59.265Z,3.73
2023-12-30T16:59:26.649Z,5.40
2023-12-30T17:01:53.943Z,5.23
2023-12-30T17:04:23.068Z,4.20
2023-12-30T17:06:50.563Z,10.87
2023-12-30T17:09:17.892Z,12.90
2023-12-30T17:11:45.213Z,16.07
2023-12-30T17:14:14.479Z,9.83
2023-12-30T17:16:42.053Z,7.43
2023-12-30T17:19:09.409Z,9.13
2023-12-30T17:21:37.337Z,8.23
2023-12-30T17:24:04.870Z,10.47
2023-12-30T17:26:32.821Z,7.50
2023-12-30T17:29:00.574Z,8.90
2023-12-30T17:31:27.837Z,9.27
2023-12-30T17:33:55.460Z,12.63
2023-12-30T17:36:23.836Z,19.23
2023-12-30T17:38:51.103Z,20.27
2023-12-30T17:41:18.390Z,17.37
2023-12-30T17:43:45.801Z,16.87
2023-12-30T17:46:13.326Z,21.73
2023-12-30T17:48:40.734Z,18.77
2023-12-30T17:51:08.024Z,18.60
2023-12-30T17:53:35.357Z,21.27
2023-12-30T17:56:02.674Z,18.07
2023-12-30T17:58:30.095Z,20.13
2023-12-30T18:00:57.413Z,19.27
2023-12-30T18:03:24.831Z,15.50
2023-12-30T18:05:52.164Z,16.23
2023-12-30T18:08:19.598Z,14.40
2023-12-30T18:10:46.856Z,16.90
2023-12-30T18:13:14.315Z,19.43
2023-12-30T18:15:41.585Z,18.80
2023-12-30T18:18:09.977Z,17.03
2023-12-30T18:20:37.678Z,17.70
2023-12-30T18:23:05.676Z,13.70
2023-12-30T18:25:35.706Z,16.47
2023-12-30T18:28:03.417Z,15.97
2023-12-30T18:30:30.796Z,19.13
2023-12-30T18:32:58.192Z,17.20
2023-12-30T18:35:29.951Z,46.40
2023-12-30T18:37:59.567Z,42.33
2023-12-30T18:40:26.886Z,27.03
2023-12-30T18:42:54.205Z,16.27
2023-12-30T18:45:21.523Z,17.37
2023-12-30T18:47:48.906Z,16.67
2023-12-30T18:50:16.535Z,18.70
2023-12-30T18:52:45.779Z,16.20
2023-12-30T18:55:13.645Z,16.63
2023-12-30T18:57:41.000Z,16.20
2023-12-30T19:00:08.635Z,20.27
2023-12-30T19:02:36.444Z,19.23
2023-12-30T19:05:04.656Z,16.93
2023-12-30T19:07:32.651Z,17.60
2023-12-30T19:10:00.070Z,16.57
2023-12-30T19:12:29.923Z,18.67
2023-12-30T19:14:57.749Z,16.60
2023-12-30T19:17:25.518Z,18.87
2023-12-30T19:19:53.125Z,20.17
2023-12-30T19:22:20.576Z,33.20
2023-12-30T19:24:47.965Z,14.40
2023-12-30T19:27:15.217Z,17.40
2023-12-30T19:29:42.500Z,17.87
2023-12-30T19:32:09.830Z,16.87
2023-12-30T19:34:37.315Z,17.87
2023-12-30T19:37:05.097Z,16.13
2023-12-30T19:39:32.458Z,14.37
2023-12-30T19:41:59.701Z,15.27
2023-12-30T19:44:28.066Z,19.30
2023-12-30T19:46:55.419Z,18.37
2023-12-30T19:49:22.773Z,15.77
2023-12-30T19:51:50.098Z,18.40
2023-12-30T19:54:17.660Z,15.40
2023-12-30T19:56:45.258Z,16.10
2023-12-30T19:59:12.637Z,13.70
2023-12-30T20:01:39.976Z,15.37
2023-12-30T20:04:07.509Z,16.17
2023-12-30T20:06:36.531Z,16.00
2023-12-30T20:09:03.897Z,17.40
2023-12-30T20:11:31.369Z,17.87
2023-12-30T20:13:58.638Z,17.07
2023-12-30T20:16:25.911Z,15.13
2023-12-30T20:18:53.444Z,14.70
2023-12-30T20:21:21.628Z,15.93
2023-12-30T20:23:49.109Z,15.97
2023-12-30T20:26:16.424Z,15.87
2023-12-30T20:28:43.739Z,12.90
2023-12-30T20:31:11.192Z,12.53
2023-12-30T20:33:39.923Z,13.10
2023-12-30T20:36:07.921Z,13.20
2023-12-30T20:38:35.669Z,13.43
2023-12-30T20:41:03.064Z,10.47
2023-12-30T20:43:30.400Z,10.97
2023-12-30T20:45:57.709Z,11.80
2023-12-30T20:48:25.017Z,11.47
2023-12-30T20:50:52.447Z,12.93
2023-12-30T20:53:19.774Z,13.90
2023-12-30T20:55:48.899Z,10.43
2023-12-30T20:58:16.236Z,10.73
2023-12-30T21:00:43.731Z,14.77
2023-12-30T21:03:11.170Z,17.40
2023-12-30T21:05:40.281Z,12.90
2023-12-30T21:08:07.673Z,12.33
2023-12-30T21:10:35.520Z,13.90
2023-12-30T21:13:03.053Z,14.60
2023-12-30T21:15:30.544Z,10.40
2023-12-30T21:17:57.836Z,12.63
2023-12-30T21:20:25.198Z,12.53
2023-12-30T21:22:55.962Z,9.23
2023-12-30T21:25:27.037Z,12.13
2023-12-30T21:27:55.105Z,10.23
2023-12-30T21:30:25.235Z,10.97
2023-12-30T21:32:53.347Z,39.47
2023-12-30T21:35:20.857Z,15.63
2023-12-30T21:37:48.795Z,9.10
2023-12-30T21:40:17.457Z,12.33
2023-12-30T21:42:44.862Z,10.90
2023-12-30T21:45:12.325Z,14.17
2023-12-30T21:47:39.749Z,15.30
2023-12-30T21:50:08.085Z,10.70
2023-12-30T21:52:38.637Z,18.83
2023-12-30T21:55:06.883Z,14.40
2023-12-30T21:57:34.320Z,12.57
2023-12-30T22:00:02.166Z,12.40
2023-12-30T22:02:49.668Z,13.17
2023-12-30T22:05:20.394Z,13.33
2023-12-30T22:07:47.840Z,13.27
2023-12-30T22:10:15.754Z,12.63
2023-12-30T22:12:43.304Z,12.30
2023-12-30T22:15:10.615Z,12.37
2023-12-30T22:17:38.089Z,11.23
2023-12-30T22:20:06.209Z,11.93
2023-12-30T22:22:33.691Z,11.93
2023-12-30T22:25:03.394Z,11.43
2023-12-30T22:27:31.025Z,12.87
2023-12-30T22:30:01.597Z,10.87
2023-12-30T22:32:29.723Z,11.43
2023-12-30T22:34:57.149Z,13.50
2023-12-30T22:37:24.856Z,12.80
2023-12-30T22:39:52.259Z,13.60
2023-12-30T22:42:19.514Z,13.07
2023-12-30T22:44:48.852Z,14.90
2023-12-30T22:47:16.184Z,10.60
2023-12-30T22:49:43.546Z,11.50
2023-12-30T22:52:11.126Z,9.63
2023-12-30T22:54:41.486Z,9.97
2023-12-30T22:57:11.828Z,9.43
2023-12-30T22:59:39.622Z,9.50
2023-12-30T23:02:06.963Z,10.07
2023-12-30T23:04:34.376Z,11.50
2023-12-30T23:07:01.754Z,9.77
2023-12-30T23:09:28.970Z,8.40
2023-12-30T23:11:56.229Z,9.73
2023-12-30T23:14:25.649Z,10.07
2023-12-30T23:16:53.200Z,8.70
2023-12-30T23:19:20.504Z,7.97
2023-12-30T23:21:47.763Z,11.37
2023-12-30T23:24:15.087Z,7.40
2023-12-30T23:26:42.358Z,8.20
2023-12-30T23:29:10.092Z,8.80
2023-12-30T23:31:42.482Z,8.77
2023-12-30T23:34:10.478Z,10.37
2023-12-30T23:36:38.031Z,9.90
2023-12-30T23:39:05.710Z,9.57
2023-12-30T23:41:33.133Z,11.20
2023-12-30T23:44:00.440Z,14.43
2023-12-30T23:46:29.234Z,11.70
2023-12-30T23:48:57.072Z,10.33
2023-12-30T23:51:24.401Z,11.63
2023-12-30T23:53:51.679Z,10.33
2023-12-30T23:56:18.958Z,10.40
2023-12-30T23:58:46.373Z,9.87
